Shoal Cove, Canada
Current Conditions -  °F | °C
As of 11:00 AM on Tuesday 27 Jan 2015 (Local Time) from CYBX Reporting Station
Broken Clouds Broken Clouds  
Wind Chill: -8°   Ceiling: 22000
Heat Index: -8°   Visibility: 15mi
Dew Point: -22°   Wind: 2mph
Humidity: 50%   Direction: NA
Pressure: 30.54"   Gusts: NA
Location:  51.02°N, 57.02°W
Report Text: CYBX 271400Z VRB02KT 15SM FEW025 SCT100 BKN220 M22/M30 A3054 RMK SC1AC3CI4 SC TR SLP345
Loading
Personal Weather Stations






























Interactive Weather Map New forecast layout! Learn more

10-Day Weather Forecast

Advertisements
Track Severe Weather on mobile